Time;durP1;ratioP1;P1;durP2;ratioP2;P2;SDS_P1;SDS_P2;PMS_P1;PMS_P2;Temp;Humidity;BMP_temperature;BMP_pressure;BME280_temperature;BME280_humidity;BME280_pressure;Samples;Min_cycle;Max_cycle;Signal;HPM_P1;HPM_P2
2023/03/08 00:00:58;;;;;;;8.45;3.30;;;-0.80;99.90;;;;;;6246678;22;20099;-78
2023/03/08 00:03:24;;;;;;;6.97;3.58;;;-0.30;99.90;;;;;;6273677;22;20039;-78
2023/03/08 00:05:50;;;;;;;9.15;3.70;;;-0.90;99.90;;;;;;6220915;22;20091;-78
2023/03/08 00:08:17;;;;;;;8.25;3.10;;;-0.90;99.90;;;;;;6246251;22;20047;-77
2023/03/08 00:10:42;;;;;;;6.00;3.50;;;-0.90;99.90;;;;;;6272773;22;20334;-78
2023/03/08 00:13:08;;;;;;;6.80;3.50;;;-0.90;99.90;;;;;;6220876;22;20018;-78
2023/03/08 00:15:38;;;;;;;7.57;3.58;;;-0.40;99.90;;;;;;6246103;22;20011;-78
2023/03/08 00:18:05;;;;;;;8.30;4.10;;;-0.90;99.90;;;;;;6246764;22;20030;-78
2023/03/08 00:20:31;;;;;;;7.68;4.05;;;-0.90;99.90;;;;;;6246653;22;20008;-78
2023/03/08 00:22:56;;;;;;;7.93;3.90;;;-0.90;99.90;;;;;;6273379;22;20007;-78
2023/03/08 00:25:22;;;;;;;6.43;3.88;;;-1.00;99.90;;;;;;6220433;22;20447;-78
2023/03/08 00:27:47;;;;;;;7.80;4.03;;;-0.90;99.90;;;;;;6221103;22;20050;-78
2023/03/08 00:30:14;;;;;;;11.90;4.78;;;-1.30;99.90;;;;;;6221170;22;20050;-77
2023/03/08 00:32:40;;;;;;;10.93;4.25;;;-1.00;99.90;;;;;;6220620;22;20015;-78
2023/03/08 00:35:06;;;;;;;11.02;4.93;;;-1.00;99.90;;;;;;6246656;22;20052;-78
2023/03/08 00:37:32;;;;;;;6.50;3.90;;;-1.00;99.90;;;;;;6273252;22;20462;-78
2023/03/08 00:39:57;;;;;;;10.57;4.97;;;-1.00;99.90;;;;;;6245625;22;20019;-78
2023/03/08 00:42:23;;;;;;;8.35;4.20;;;-1.00;99.90;;;;;;6221362;22;20011;-78
2023/03/08 00:44:49;;;;;;;8.38;3.78;;;-1.10;99.90;;;;;;6246255;22;20091;-78
2023/03/08 00:47:15;;;;;;;7.35;3.90;;;-1.10;99.90;;;;;;6246515;22;20339;-78
2023/03/08 00:49:41;;;;;;;10.75;5.55;;;-1.10;99.90;;;;;;6220591;22;20015;-78
2023/03/08 00:52:07;;;;;;;8.18;4.72;;;-1.20;99.90;;;;;;6273651;22;20014;-78
2023/03/08 00:54:33;;;;;;;7.30;4.53;;;-1.10;99.90;;;;;;6273032;22;20126;-78
2023/03/08 00:56:59;;;;;;;9.05;5.63;;;-1.10;99.90;;;;;;6245837;22;20096;-78
2023/03/08 00:59:24;;;;;;;5.78;4.13;;;-1.20;99.90;;;;;;6246200;22;20019;-77
2023/03/08 01:01:50;;;;;;;7.90;4.35;;;-1.20;99.90;;;;;;6246267;22;20016;-78
2023/03/08 01:04:16;;;;;;;8.77;4.25;;;-1.20;99.90;;;;;;6220557;22;20012;-78
2023/03/08 01:06:42;;;;;;;5.43;4.30;;;-1.20;99.90;;;;;;6246367;22;20399;-78
2023/03/08 01:09:09;;;;;;;7.45;4.40;;;-1.20;99.90;;;;;;6245705;22;20066;-77
2023/03/08 01:11:36;;;;;;;9.73;4.38;;;-1.20;99.90;;;;;;6246442;22;20008;-78
2023/03/08 01:14:02;;;;;;;6.13;4.22;;;-1.20;99.90;;;;;;6245923;22;20019;-78
2023/03/08 01:16:31;;;;;;;8.23;4.05;;;-1.30;99.90;;;;;;6245935;22;20047;-78
2023/03/08 01:18:58;;;;;;;10.27;4.10;;;-1.30;99.90;;;;;;6220633;22;20035;-77
2023/03/08 01:21:25;;;;;;;9.20;4.40;;;-1.30;99.90;;;;;;6246097;22;20018;-78
2023/03/08 01:23:51;;;;;;;10.48;4.50;;;-1.30;99.90;;;;;;6221919;22;20011;-78
2023/03/08 01:26:20;;;;;;;10.48;4.72;;;-1.30;99.90;;;;;;6222451;22;20063;-78
2023/03/08 01:28:46;;;;;;;9.95;4.20;;;-1.30;99.90;;;;;;6275245;22;20051;-78
2023/03/08 01:31:17;;;;;;;10.85;4.10;;;-1.20;99.90;;;;;;6222159;22;20135;-77
2023/03/08 01:33:43;;;;;;;8.13;3.20;;;-1.20;99.90;;;;;;6222535;22;20011;-77
2023/03/08 01:36:13;;;;;;;7.80;3.70;;;-1.20;99.90;;;;;;6222212;22;20039;-77
2023/03/08 01:38:42;;;;;;;6.10;3.17;;;-1.20;99.90;;;;;;6247707;22;20037;-78
2023/03/08 01:41:17;;;;;;;10.40;3.50;;;-1.20;99.90;;;;;;6247789;22;20031;-77
2023/03/08 01:43:43;;;;;;;8.80;3.10;;;-1.20;99.90;;;;;;6248199;22;20014;-78
2023/03/08 01:46:16;;;;;;;7.20;2.90;;;-1.20;99.90;;;;;;6247608;22;20461;-77
2023/03/08 01:48:54;;;;;;;7.40;3.40;;;-1.20;99.90;;;;;;6222366;22;20092;-78
2023/03/08 01:51:28;;;;;;;9.43;3.70;;;-1.20;99.90;;;;;;6246925;22;20011;-77
2023/03/08 01:53:56;;;;;;;10.45;3.50;;;-1.20;99.90;;;;;;6247733;22;20003;-77
2023/03/08 01:56:23;;;;;;;11.02;3.67;;;-1.20;99.90;;;;;;6247719;22;20058;-78
2023/03/08 01:58:50;;;;;;;7.32;3.05;;;-1.20;99.90;;;;;;6222246;22;20142;-77
2023/03/08 02:01:17;;;;;;;7.93;3.17;;;-1.20;99.90;;;;;;6274836;22;20138;-77
2023/03/08 02:03:44;;;;;;;8.63;3.60;;;-1.20;99.90;;;;;;6247788;22;20012;-78
2023/03/08 02:06:10;;;;;;;6.65;3.05;;;-1.30;99.90;;;;;;6246667;22;20018;-78
2023/03/08 02:08:35;;;;;;;7.97;3.45;;;-1.30;99.90;;;;;;6222105;22;20476;-77
2023/03/08 02:11:01;;;;;;;8.75;3.10;;;-1.30;99.90;;;;;;6247739;22;20090;-78
2023/03/08 02:13:27;;;;;;;6.90;3.35;;;-1.30;99.90;;;;;;6221914;22;20016;-77
2023/03/08 02:15:55;;;;;;;9.98;3.47;;;-1.20;99.90;;;;;;6221794;22;20449;-77
2023/03/08 02:18:21;;;;;;;7.13;3.20;;;-1.30;99.90;;;;;;6247670;22;20007;-77
2023/03/08 02:20:47;;;;;;;8.40;2.95;;;-1.30;99.90;;;;;;6246581;22;20011;-77
2023/03/08 02:23:24;;;;;;;9.30;3.20;;;-1.30;99.90;;;;;;6247321;22;20014;-78
2023/03/08 02:25:49;;;;;;;6.35;3.30;;;-1.30;99.90;;;;;;6221965;22;20099;-77
2023/03/08 02:28:15;;;;;;;8.23;3.05;;;-1.30;99.90;;;;;;6247567;22;20043;-77
2023/03/08 02:30:41;;;;;;;7.45;2.90;;;-1.40;99.90;;;;;;6246663;22;20007;-77
2023/03/08 02:33:06;;;;;;;7.25;2.97;;;-1.40;99.90;;;;;;6247079;22;20068;-77
2023/03/08 02:35:32;;;;;;;6.30;3.25;;;-1.40;99.90;;;;;;6221259;22;20138;-77
2023/03/08 02:37:57;;;;;;;12.85;3.45;;;-1.40;99.90;;;;;;6247636;22;20007;-77
2023/03/08 02:40:24;;;;;;;9.98;3.13;;;-1.40;99.90;;;;;;6247097;22;20442;-77
2023/03/08 02:42:50;;;;;;;9.40;3.72;;;-1.40;99.90;;;;;;6247381;22;20012;-77
2023/03/08 02:45:15;;;;;;;8.57;3.72;;;-1.40;99.90;;;;;;6247405;22;20061;-77
2023/03/08 02:47:41;;;;;;;8.23;4.00;;;-1.30;99.90;;;;;;6274525;22;20021;-78
2023/03/08 02:50:07;;;;;;;7.70;3.75;;;-1.30;99.90;;;;;;6273865;22;20011;-77
2023/03/08 02:52:33;;;;;;;9.82;4.03;;;-1.30;99.90;;;;;;6246903;22;20008;-77
2023/03/08 02:54:58;;;;;;;8.23;4.00;;;-1.30;99.90;;;;;;6246875;22;20141;-77
2023/03/08 02:57:24;;;;;;;9.25;3.95;;;-1.30;99.90;;;;;;6221338;22;20016;-77
2023/03/08 02:59:50;;;;;;;6.57;4.28;;;-1.30;99.90;;;;;;6274008;22;20446;-77
2023/03/08 03:02:15;;;;;;;8.38;4.18;;;-1.40;99.90;;;;;;6274337;22;20047;-77
2023/03/08 03:04:41;;;;;;;7.13;4.28;;;-1.30;99.90;;;;;;6273660;22;20010;-77
2023/03/08 03:07:06;;;;;;;8.02;4.30;;;-1.30;99.90;;;;;;6246770;22;20015;-77
2023/03/08 03:09:34;;;;;;;10.75;4.43;;;-1.30;99.90;;;;;;6273610;22;20011;-77
2023/03/08 03:11:59;;;;;;;13.85;5.00;;;-1.30;99.90;;;;;;6273776;22;20409;-77
2023/03/08 03:14:28;;;;;;;9.75;4.55;;;-1.30;99.90;;;;;;6246711;22;20051;-77
2023/03/08 03:16:54;;;;;;;9.60;4.63;;;-1.30;99.90;;;;;;6247031;22;20091;-77
2023/03/08 03:19:20;;;;;;;9.60;3.90;;;-1.40;99.90;;;;;;6273605;22;20035;-77
2023/03/08 03:21:45;;;;;;;9.80;4.90;;;-1.40;99.90;;;;;;6246762;22;20418;-77
2023/03/08 03:24:12;;;;;;;7.88;4.45;;;-1.40;99.90;;;;;;6274141;22;20016;-77
2023/03/08 03:26:37;;;;;;;10.18;4.55;;;-1.40;99.90;;;;;;6246637;22;20031;-77
2023/03/08 03:29:03;;;;;;;7.35;4.28;;;-1.40;99.90;;;;;;6246417;22;20112;-77
2023/03/08 03:31:29;;;;;;;11.75;4.38;;;-1.40;99.90;;;;;;6273796;22;20007;-77
2023/03/08 03:33:56;;;;;;;6.60;4.30;;;-1.40;99.90;;;;;;6246057;22;20101;-77
2023/03/08 03:36:22;;;;;;;8.57;4.40;;;-1.40;99.90;;;;;;6273797;22;20018;-77
2023/03/08 03:38:49;;;;;;;5.90;3.83;;;-1.40;99.90;;;;;;6221216;22;20094;-77
2023/03/08 03:41:17;;;;;;;10.55;4.50;;;-1.50;99.90;;;;;;6246199;22;20007;-77
2023/03/08 03:43:43;;;;;;;8.45;3.92;;;-1.50;99.90;;;;;;6246214;22;20053;-77
2023/03/08 03:46:15;;;;;;;8.98;4.13;;;-1.50;99.90;;;;;;6220752;22;20090;-77
2023/03/08 03:48:41;;;;;;;8.13;3.90;;;-1.50;99.90;;;;;;6245794;22;20087;-77
2023/03/08 03:51:12;;;;;;;7.85;4.03;;;-1.50;99.90;;;;;;6273874;22;20090;-77
2023/03/08 03:53:39;;;;;;;6.55;4.07;;;-1.40;99.90;;;;;;6246652;22;20015;-77
2023/03/08 03:56:05;;;;;;;12.85;4.55;;;-1.50;99.90;;;;;;6220973;22;20012;-77
2023/03/08 03:58:31;;;;;;;12.30;4.90;;;-1.50;99.90;;;;;;6246377;22;20095;-77
2023/03/08 04:00:57;;;;;;;9.48;4.30;;;-1.60;99.90;;;;;;6246580;22;20039;-77
2023/03/08 04:03:23;;;;;;;6.80;3.70;;;-1.60;99.90;;;;;;6245726;22;20015;-77
2023/03/08 04:05:49;;;;;;;8.35;3.90;;;-1.60;99.90;;;;;;6273838;22;20008;-77
2023/03/08 04:08:15;;;;;;;8.38;4.50;;;-1.60;99.90;;;;;;6220904;22;20014;-77
2023/03/08 04:10:40;;;;;;;12.68;4.15;;;-1.40;99.90;;;;;;6246372;22;20394;-77
2023/03/08 04:13:06;;;;;;;9.20;3.88;;;-1.70;99.90;;;;;;6246175;22;20394;-77
2023/03/08 04:15:32;;;;;;;9.63;4.20;;;-1.70;99.90;;;;;;6221041;22;20030;-77
2023/03/08 04:17:57;;;;;;;9.30;3.70;;;-1.70;99.90;;;;;;6245622;22;20057;-77
2023/03/08 04:20:23;;;;;;;10.40;4.10;;;-1.80;99.90;;;;;;6246516;22;20061;-77
2023/03/08 04:22:49;;;;;;;8.23;4.40;;;-1.80;99.90;;;;;;6273370;22;20434;-77
2023/03/08 04:25:15;;;;;;;8.45;4.18;;;-1.80;99.90;;;;;;6246112;22;20038;-77
2023/03/08 04:27:40;;;;;;;9.63;4.22;;;-1.80;99.90;;;;;;6246423;22;20023;-76
2023/03/08 04:30:06;;;;;;;10.25;4.10;;;-1.80;99.90;;;;;;6246290;22;20016;-76
2023/03/08 04:32:32;;;;;;;8.23;4.10;;;-1.80;99.90;;;;;;6220019;22;20015;-77
2023/03/08 04:34:58;;;;;;;7.93;4.07;;;-1.80;99.90;;;;;;6220646;22;20004;-77
2023/03/08 04:37:24;;;;;;;9.15;4.57;;;-1.80;99.90;;;;;;6246063;22;20392;-77
2023/03/08 04:39:50;;;;;;;7.15;4.10;;;-1.80;99.90;;;;;;6245964;22;20022;-77
2023/03/08 04:42:16;;;;;;;7.20;4.00;;;-1.80;99.90;;;;;;6246003;22;20086;-77
2023/03/08 04:44:41;;;;;;;9.10;4.20;;;-1.80;99.90;;;;;;6245915;22;20098;-77
2023/03/08 04:47:07;;;;;;;9.00;4.60;;;-1.70;99.90;;;;;;6246130;22;20447;-77
2023/03/08 04:49:33;;;;;;;8.63;4.60;;;-1.80;99.90;;;;;;6220573;22;20046;-77
2023/03/08 04:51:59;;;;;;;9.68;4.45;;;-1.80;99.90;;;;;;6246316;22;20440;-77
2023/03/08 04:54:24;;;;;;;7.90;4.78;;;-1.80;99.90;;;;;;6220502;22;20156;-77
2023/03/08 04:56:50;;;;;;;10.25;4.28;;;-1.80;99.90;;;;;;6247357;22;20018;-77
2023/03/08 04:59:16;;;;;;;8.07;4.35;;;-1.10;99.90;;;;;;6247768;22;20073;-77
2023/03/08 05:01:41;;;;;;;11.07;5.68;;;-1.70;99.90;;;;;;6275312;22;20085;-76
2023/03/08 05:04:10;;;;;;;9.80;5.30;;;-1.70;99.90;;;;;;6275131;22;20014;-77
2023/03/08 05:06:35;;;;;;;6.80;4.82;;;-1.70;99.90;;;;;;6275086;22;20446;-77
2023/03/08 05:09:01;;;;;;;9.98;5.65;;;-1.70;99.90;;;;;;6222460;22;20022;-77
2023/03/08 05:11:28;;;;;;;9.32;5.18;;;-1.70;99.90;;;;;;6248266;22;20008;-77
2023/03/08 05:13:56;;;;;;;10.93;6.13;;;-1.70;99.90;;;;;;6247381;22;20101;-77
2023/03/08 05:16:22;;;;;;;7.82;5.53;;;-1.70;99.90;;;;;;6222710;22;20016;-77
2023/03/08 05:18:48;;;;;;;12.45;6.35;;;-1.70;99.90;;;;;;6248013;22;20039;-77
2023/03/08 05:21:16;;;;;;;10.68;6.18;;;-1.70;99.90;;;;;;6248213;22;20034;-77
2023/03/08 05:23:42;;;;;;;9.18;6.38;;;-1.70;99.90;;;;;;6247622;22;20004;-77
2023/03/08 05:26:11;;;;;;;11.57;7.80;;;-1.70;99.90;;;;;;6247660;22;20430;-77
2023/03/08 05:28:37;;;;;;;11.35;7.82;;;-1.80;99.90;;;;;;6221823;22;20414;-77
2023/03/08 05:31:09;;;;;;;9.88;6.78;;;-1.80;99.90;;;;;;6274978;22;20020;-77
2023/03/08 05:33:37;;;;;;;10.07;7.95;;;-1.80;99.90;;;;;;6222249;22;20023;-77
2023/03/08 05:36:03;;;;;;;16.45;9.85;;;-1.90;99.90;;;;;;6275009;22;20022;-77
2023/03/08 05:38:28;;;;;;;12.82;10.20;;;-1.90;99.90;;;;;;6247588;22;20008;-77
2023/03/08 05:40:54;;;;;;;15.85;11.20;;;-1.90;99.90;;;;;;6247542;22;20003;-76
2023/03/08 05:43:20;;;;;;;16.98;13.35;;;-1.90;99.90;;;;;;6274519;22;20011;-76
2023/03/08 05:45:58;;;;;;;18.52;12.73;;;-1.90;99.90;;;;;;6247417;22;20326;-76
2023/03/08 05:48:24;;;;;;;15.23;12.95;;;-1.90;99.90;;;;;;6247590;22;20007;-76
2023/03/08 05:50:50;;;;;;;23.48;17.25;;;-1.90;99.90;;;;;;6247977;22;20012;-76
2023/03/08 05:53:16;;;;;;;20.77;16.50;;;-1.90;99.90;;;;;;6222180;22;20019;-76
2023/03/08 05:55:41;;;;;;;24.40;18.25;;;-1.90;99.90;;;;;;6247432;22;20007;-76
2023/03/08 05:58:07;;;;;;;22.42;18.55;;;-1.90;99.90;;;;;;6274211;22;20035;-77
2023/03/08 06:00:33;;;;;;;26.33;19.65;;;-1.90;99.90;;;;;;6275038;22;20046;-76
2023/03/08 06:03:02;;;;;;;25.75;20.05;;;-1.90;99.90;;;;;;6247456;22;20077;-76
2023/03/08 06:05:28;;;;;;;24.10;18.90;;;-1.90;99.90;;;;;;6222017;22;20073;-76
2023/03/08 06:07:54;;;;;;;22.42;20.13;;;-1.90;99.90;;;;;;6246957;22;20004;-76
2023/03/08 06:10:20;;;;;;;25.90;20.58;;;-1.90;99.90;;;;;;6247830;22;20499;-77
2023/03/08 06:12:45;;;;;;;25.23;21.95;;;-1.90;99.90;;;;;;6221382;22;20051;-77
2023/03/08 06:15:12;;;;;;;25.48;22.42;;;-1.90;99.90;;;;;;6221951;22;20031;-77
2023/03/08 06:17:38;;;;;;;31.58;23.30;;;-2.00;99.90;;;;;;6221584;22;20012;-76
2023/03/08 06:20:04;;;;;;;28.38;22.58;;;-1.90;99.90;;;;;;6246846;22;20003;-76
2023/03/08 06:22:30;;;;;;;25.48;21.40;;;-1.90;99.90;;;;;;6221544;22;20087;-76
2023/03/08 06:24:55;;;;;;;28.70;22.48;;;-1.90;99.90;;;;;;6246813;22;20168;-77
2023/03/08 06:27:21;;;;;;;28.27;23.85;;;-1.90;99.90;;;;;;6246235;22;20058;-76
2023/03/08 06:29:47;;;;;;;30.27;23.63;;;-1.90;99.90;;;;;;6246788;22;20012;-76
2023/03/08 06:32:13;;;;;;;30.80;26.67;;;-1.80;99.90;;;;;;6246645;22;20110;-76
2023/03/08 06:34:39;;;;;;;37.05;27.58;;;-1.80;99.90;;;;;;6221649;22;20043;-76
2023/03/08 06:37:04;;;;;;;29.42;26.25;;;-1.80;99.90;;;;;;6273960;22;20047;-77
2023/03/08 06:39:30;;;;;;;29.73;26.02;;;-1.80;99.90;;;;;;6274354;22;20031;-77
2023/03/08 06:41:57;;;;;;;30.05;25.92;;;-1.70;99.90;;;;;;6246176;22;20071;-77
2023/03/08 06:44:22;;;;;;;27.63;24.73;;;-1.70;99.90;;;;;;6221505;22;20012;-77
2023/03/08 06:46:48;;;;;;;27.55;24.33;;;-1.70;99.90;;;;;;6246880;22;20015;-76
2023/03/08 06:49:13;;;;;;;31.95;27.58;;;-1.60;99.90;;;;;;6274273;22;20022;-76
2023/03/08 06:51:39;;;;;;;29.65;23.85;;;-1.60;99.90;;;;;;6246850;22;20465;-77
2023/03/08 06:54:05;;;;;;;27.23;23.77;;;-1.50;99.90;;;;;;6246771;22;20019;-76
2023/03/08 06:56:30;;;;;;;29.77;23.83;;;-1.50;99.90;;;;;;6221188;22;20133;-76
2023/03/08 06:58:56;;;;;;;28.65;25.55;;;-1.40;99.90;;;;;;6246575;22;20050;-77
2023/03/08 07:01:21;;;;;;;29.73;25.25;;;-1.30;99.90;;;;;;6246575;22;20011;-77
2023/03/08 07:03:47;;;;;;;29.98;26.77;;;-1.30;99.90;;;;;;6221323;22;20007;-76
2023/03/08 07:06:13;;;;;;;29.10;25.90;;;-1.20;99.90;;;;;;6221504;22;20096;-77
2023/03/08 07:08:39;;;;;;;27.05;23.92;;;-1.10;99.90;;;;;;6247051;22;20008;-77
2023/03/08 07:11:07;;;;;;;29.02;25.05;;;-1.00;99.90;;;;;;6220846;22;20020;-77
2023/03/08 07:13:33;;;;;;;29.10;26.00;;;-0.90;99.90;;;;;;6246788;22;20011;-77
2023/03/08 07:16:08;;;;;;;28.70;25.63;;;-0.90;99.90;;;;;;6273989;22;20094;-77
2023/03/08 07:18:34;;;;;;;29.55;26.33;;;-0.70;99.90;;;;;;6246371;22;20016;-77
2023/03/08 07:21:00;;;;;;;31.92;28.35;;;-0.70;99.90;;;;;;6220951;22;20004;-76
2023/03/08 07:23:25;;;;;;;37.38;25.35;;;-0.60;99.90;;;;;;6273945;22;20087;-77
2023/03/08 07:25:51;;;;;;;28.05;25.13;;;-0.50;99.90;;;;;;6221022;22;20011;-77
2023/03/08 07:28:17;;;;;;;30.25;27.05;;;-0.40;99.90;;;;;;6220802;22;20000;-77
2023/03/08 07:30:51;;;;;;;29.75;24.52;;;-0.30;99.90;;;;;;6273722;22;20062;-76
2023/03/08 07:33:17;;;;;;;26.95;23.73;;;-0.30;99.90;;;;;;6246579;22;20018;-77
2023/03/08 07:35:43;;;;;;;26.92;23.65;;;-0.20;99.90;;;;;;6273710;22;20012;-77
2023/03/08 07:38:11;;;;;;;25.45;22.25;;;-0.10;99.90;;;;;;6246305;22;20012;-77
2023/03/08 07:40:37;;;;;;;24.25;20.75;;;0.00;99.90;;;;;;6245705;22;20339;-77
2023/03/08 07:43:03;;;;;;;27.27;22.38;;;0.10;99.90;;;;;;6273682;22;20007;-77
2023/03/08 07:45:28;;;;;;;24.50;21.35;;;0.20;99.90;;;;;;6246240;22;20026;-77
2023/03/08 07:47:54;;;;;;;28.50;21.27;;;0.20;99.90;;;;;;6246183;22;20034;-77
2023/03/08 07:50:20;;;;;;;23.17;20.67;;;0.20;99.90;;;;;;6246199;22;20037;-77
2023/03/08 07:52:46;;;;;;;22.95;20.52;;;0.30;99.90;;;;;;6246199;22;20094;-77
2023/03/08 07:55:12;;;;;;;21.48;19.23;;;1.00;99.90;;;;;;6273200;22;20043;-78
2023/03/08 07:57:38;;;;;;;22.45;20.00;;;0.50;99.90;;;;;;6245924;22;20030;-77
2023/03/08 08:00:08;;;;;;;22.40;19.75;;;0.60;99.90;;;;;;6246239;22;20012;-77
2023/03/08 08:02:35;;;;;;;22.60;20.20;;;0.70;99.90;;;;;;6246118;22;20134;-77
2023/03/08 08:05:01;;;;;;;18.85;16.85;;;0.80;99.90;;;;;;6273361;22;20030;-77
2023/03/08 08:07:27;;;;;;;18.58;16.70;;;0.80;99.90;;;;;;6273670;22;20038;-77
2023/03/08 08:09:53;;;;;;;18.70;16.70;;;0.90;99.90;;;;;;6220266;22;20072;-77
2023/03/08 08:12:18;;;;;;;20.55;16.65;;;0.90;99.90;;;;;;6246482;22;20007;-78
2023/03/08 08:14:44;;;;;;;19.27;15.98;;;1.00;99.90;;;;;;6220702;22;20324;-77
2023/03/08 08:17:10;;;;;;;17.55;15.55;;;1.10;99.90;;;;;;6220649;22;20365;-77
2023/03/08 08:19:37;;;;;;;18.10;16.13;;;1.10;99.90;;;;;;6245978;22;20099;-77
2023/03/08 08:22:03;;;;;;;19.52;16.23;;;1.20;99.90;;;;;;6245961;22;20023;-77
2023/03/08 08:24:29;;;;;;;19.48;17.17;;;1.30;99.90;;;;;;6245266;22;20004;-77
2023/03/08 08:26:55;;;;;;;17.60;15.90;;;1.40;99.90;;;;;;6246015;22;20114;-77
2023/03/08 08:29:21;;;;;;;24.38;16.02;;;1.50;99.90;;;;;;6220646;22;20117;-78
2023/03/08 08:31:47;;;;;;;17.73;15.57;;;1.60;99.90;;;;;;6272934;22;20099;-78
2023/03/08 08:34:13;;;;;;;17.70;14.38;;;1.70;99.90;;;;;;6273590;22;20055;-78
2023/03/08 08:36:38;;;;;;;16.42;14.73;;;1.80;99.90;;;;;;6245875;22;20411;-78
2023/03/08 08:39:04;;;;;;;15.73;14.02;;;1.80;99.90;;;;;;6245602;22;20012;-77
2023/03/08 08:41:31;;;;;;;19.35;14.43;;;1.80;99.90;;;;;;6220882;22;20065;-78
2023/03/08 08:43:58;;;;;;;15.40;12.30;;;1.90;99.90;;;;;;6246072;22;20008;-78
2023/03/08 08:46:26;;;;;;;15.68;13.63;;;1.90;99.90;;;;;;6220730;22;20407;-78
2023/03/08 08:48:52;;;;;;;16.85;13.63;;;2.00;99.90;;;;;;6246002;22;20015;-78
2023/03/08 08:51:18;;;;;;;13.63;12.23;;;2.10;99.90;;;;;;6220284;22;20062;-78
2023/03/08 08:53:44;;;;;;;15.75;12.43;;;2.10;99.90;;;;;;6273502;22;20015;-78
2023/03/08 08:56:28;;;;;;;13.18;11.77;;;2.10;99.90;;;;;;6272979;22;20012;-78
2023/03/08 08:58:55;;;;;;;15.00;11.40;;;2.20;99.90;;;;;;6246345;22;20126;-78
2023/03/08 09:01:26;;;;;;;11.70;9.90;;;2.20;99.90;;;;;;6245961;22;20065;-78
2023/03/08 09:03:52;;;;;;;13.95;11.07;;;2.30;99.90;;;;;;6245929;22;20050;-78
2023/03/08 09:06:20;;;;;;;12.13;9.75;;;2.40;99.90;;;;;;6272715;22;20011;-78
2023/03/08 09:08:50;;;;;;;12.18;10.15;;;2.40;99.90;;;;;;6246132;22;20023;-78
2023/03/08 09:11:16;;;;;;;13.43;10.52;;;2.40;99.90;;;;;;6273386;22;20012;-78
2023/03/08 09:13:41;;;;;;;14.65;11.05;;;2.40;99.90;;;;;;6220519;22;20007;-79
2023/03/08 09:16:21;;;;;;;14.43;10.13;;;2.50;99.90;;;;;;6246079;22;20018;-78
2023/03/08 09:18:47;;;;;;;12.18;9.75;;;2.60;99.90;;;;;;6246152;22;20004;-78
2023/03/08 09:21:14;;;;;;;12.82;9.65;;;2.70;99.90;;;;;;6245090;22;20091;-78
2023/03/08 09:23:40;;;;;;;10.88;9.77;;;2.90;99.90;;;;;;6220422;22;20004;-78
2023/03/08 09:26:06;;;;;;;11.68;9.35;;;3.00;99.90;;;;;;6272834;22;20016;-78
2023/03/08 09:28:32;;;;;;;11.20;9.98;;;3.00;99.90;;;;;;6220489;22;20012;-79
2023/03/08 09:30:58;;;;;;;11.43;9.45;;;3.10;99.90;;;;;;6245925;22;20050;-79
2023/03/08 09:33:24;;;;;;;15.82;9.10;;;3.20;99.90;;;;;;6220513;22;20012;-78
2023/03/08 09:35:57;;;;;;;10.05;7.45;;;3.30;99.90;;;;;;6245238;22;20411;-78
2023/03/08 09:38:23;;;;;;;12.38;8.70;;;3.50;99.90;;;;;;6246201;22;20003;-78
2023/03/08 09:41:25;;;;;;;9.75;8.30;;;3.40;99.90;;;;;;6245823;22;20339;-78
2023/03/08 09:44:12;;;;;;;8.98;7.00;;;3.40;99.90;;;;;;6221596;22;20062;-79
2023/03/08 09:46:47;;;;;;;10.18;7.35;;;3.40;99.90;;;;;;6275060;22;20015;-78
2023/03/08 09:49:20;;;;;;;10.20;5.97;;;3.50;99.90;;;;;;6221839;22;20011;-78
2023/03/08 09:51:49;;;;;;;9.18;6.25;;;3.40;99.90;;;;;;6222930;22;20023;-78
2023/03/08 09:54:20;;;;;;;9.68;6.00;;;3.50;99.90;;;;;;6222484;22;20026;-78
2023/03/08 09:56:48;;;;;;;8.90;5.97;;;3.70;99.90;;;;;;6247685;22;20016;-78
2023/03/08 09:59:24;;;;;;;7.85;5.18;;;3.60;99.90;;;;;;6222328;22;20046;-78
2023/03/08 10:02:11;;;;;;;5.95;4.38;;;3.50;99.90;;;;;;6247778;22;20023;-78
2023/03/08 10:05:05;;;;;;;7.72;5.80;;;3.60;99.90;;;;;;6221417;22;20019;-78
2023/03/08 10:07:37;;;;;;;10.80;5.13;;;3.60;99.90;;;;;;6247647;22;20020;-78
2023/03/08 10:10:28;;;;;;;7.15;4.45;;;3.70;99.90;;;;;;6247626;22;20012;-78
2023/03/08 10:13:19;;;;;;;12.60;8.50;;;3.80;99.90;;;;;;6227886;22;20016;-78
2023/03/08 10:15:49;;;;;;;7.60;4.75;;;3.80;99.90;;;;;;6275039;22;20016;-78
2023/03/08 10:18:28;;;;;;;8.35;6.10;;;3.80;99.90;;;;;;6246848;22;20016;-78
2023/03/08 10:20:55;;;;;;;7.30;4.82;;;4.10;99.90;;;;;;6222130;22;20012;-78
2023/03/08 10:23:23;;;;;;;9.25;5.18;;;3.90;99.90;;;;;;6247275;22;20080;-78
2023/03/08 10:25:49;;;;;;;7.85;4.60;;;3.90;99.90;;;;;;6247369;22;20043;-78
2023/03/08 10:28:20;;;;;;;6.65;4.57;;;4.00;99.90;;;;;;6247727;22;20012;-78
2023/03/08 10:30:59;;;;;;;7.43;5.05;;;4.00;99.90;;;;;;6274297;22;20446;-78
2023/03/08 10:33:31;;;;;;;7.38;4.60;;;4.10;99.90;;;;;;6247130;22;20039;-78
2023/03/08 10:36:01;;;;;;;4.93;2.33;;;4.20;99.90;;;;;;6247216;22;20469;-78
2023/03/08 10:38:30;;;;;;;6.85;3.60;;;4.00;99.90;;;;;;6247236;22;20031;-78
2023/03/08 10:41:08;;;;;;;6.93;3.30;;;4.10;99.90;;;;;;6247769;22;20082;-78
2023/03/08 10:43:44;;;;;;;21.88;13.50;;;4.10;99.90;;;;;;6222030;22;20086;-78
2023/03/08 10:46:13;;;;;;;7.35;3.78;;;4.20;99.90;;;;;;6222190;22;20079;-78
2023/03/08 10:48:39;;;;;;;7.15;4.38;;;4.40;99.90;;;;;;6247134;22;20012;-78
2023/03/08 10:51:14;;;;;;;8.02;4.05;;;4.50;99.90;;;;;;6222144;22;20094;-78
2023/03/08 10:53:51;;;;;;;8.45;4.15;;;4.50;99.90;;;;;;6247086;22;20095;-78
2023/03/08 10:56:27;;;;;;;5.80;3.97;;;4.60;99.90;;;;;;6247316;22;20012;-78
2023/03/08 10:58:55;;;;;;;4.93;3.80;;;4.70;99.90;;;;;;6247766;22;20008;-78
2023/03/08 11:01:31;;;;;;;5.95;3.85;;;4.70;99.90;;;;;;6222048;22;20022;-78
2023/03/08 11:04:05;;;;;;;8.02;4.10;;;4.70;99.90;;;;;;6246402;22;20084;-78
2023/03/08 11:06:34;;;;;;;7.57;4.47;;;4.90;99.90;;;;;;6221795;22;20012;-78
2023/03/08 11:09:01;;;;;;;7.20;4.55;;;4.90;99.90;;;;;;6221609;22;20003;-78
2023/03/08 11:11:27;;;;;;;6.57;3.83;;;4.80;99.90;;;;;;6274366;22;20090;-78
2023/03/08 11:13:54;;;;;;;7.30;4.78;;;4.80;99.90;;;;;;6247341;22;20045;-78
2023/03/08 11:16:31;;;;;;;7.97;4.40;;;4.60;99.90;;;;;;6246645;22;20008;-78
2023/03/08 11:19:02;;;;;;;7.97;5.10;;;4.80;99.90;;;;;;6246938;22;20012;-78
2023/03/08 11:21:42;;;;;;;7.85;5.68;;;4.60;99.90;;;;;;6247410;22;20043;-77
2023/03/08 11:24:43;;;;;;;7.43;5.85;;;4.60;99.90;;;;;;6246981;22;20015;-78
2023/03/08 11:27:30;;;;;;;8.82;5.70;;;4.70;99.90;;;;;;6246718;22;20430;-78
2023/03/08 11:30:19;;;;;;;9.82;6.95;;;4.60;99.90;;;;;;6274267;22;20011;-78
2023/03/08 11:33:00;;;;;;;10.20;7.60;;;4.70;99.90;;;;;;6273470;22;20020;-78
2023/03/08 11:35:51;;;;;;;10.55;6.78;;;4.70;99.90;;;;;;6246595;22;20084;-78
2023/03/08 11:38:28;;;;;;;8.90;7.05;;;4.80;99.90;;;;;;6246746;22;20426;-78
2023/03/08 11:41:00;;;;;;;9.00;6.03;;;4.90;99.90;;;;;;6246846;22;20019;-78
2023/03/08 11:44:03;;;;;;;9.85;5.97;;;4.90;99.90;;;;;;6274265;22;20334;-77
2023/03/08 11:46:39;;;;;;;9.35;6.18;;;4.80;99.90;;;;;;6273751;22;20007;-78
2023/03/08 11:49:29;;;;;;;10.90;7.28;;;4.70;99.90;;;;;;6221098;22;20070;-78
2023/03/08 11:52:18;;;;;;;7.63;4.65;;;4.70;99.90;;;;;;6246445;22;20016;-78
2023/03/08 11:54:56;;;;;;;7.07;4.97;;;4.70;99.90;;;;;;6246346;22;20012;-78
2023/03/08 11:57:24;;;;;;;6.70;3.58;;;4.60;99.90;;;;;;6246905;22;20012;-77
2023/03/08 11:59:53;;;;;;;8.00;3.60;;;4.70;99.90;;;;;;6220325;22;20086;-77
2023/03/08 12:02:23;;;;;;;9.27;5.65;;;4.60;99.90;;;;;;6221064;22;20073;-78
2023/03/08 12:04:52;;;;;;;7.18;4.65;;;4.50;99.90;;;;;;6220875;22;20026;-77
2023/03/08 12:07:38;;;;;;;14.07;7.88;;;4.60;99.90;;;;;;6246115;22;20022;-78
2023/03/08 12:10:19;;;;;;;9.45;4.82;;;4.80;99.90;;;;;;6220944;22;20334;-78
2023/03/08 12:12:58;;;;;;;6.53;3.95;;;5.00;99.90;;;;;;6220948;22;20016;-78
2023/03/08 12:15:46;;;;;;;6.72;3.50;;;5.00;99.90;;;;;;6273271;22;20007;-78
2023/03/08 12:18:35;;;;;;;6.72;3.88;;;5.10;99.90;;;;;;6220959;22;20064;-78
2023/03/08 12:21:22;;;;;;;5.88;3.05;;;5.10;99.90;;;;;;6273937;22;20089;-78
2023/03/08 12:24:24;;;;;;;5.90;4.00;;;5.10;99.90;;;;;;6273690;22;20097;-77
2023/03/08 12:27:24;;;;;;;7.38;3.92;;;5.30;99.90;;;;;;6189045;22;20022;-78
2023/03/08 12:30:11;;;;;;;6.28;3.53;;;5.50;99.90;;;;;;6245485;22;20465;-78
2023/03/08 12:32:38;;;;;;;6.43;3.90;;;5.50;99.90;;;;;;6220760;22;20016;-78
2023/03/08 12:35:22;;;;;;;6.63;3.85;;;5.60;99.90;;;;;;6273632;22;20129;-78
2023/03/08 12:38:18;;;;;;;7.68;4.10;;;5.70;99.90;;;;;;6273195;22;20083;-78
2023/03/08 12:40:48;;;;;;;4.70;3.53;;;5.60;99.90;;;;;;6220718;22;20015;-78
2023/03/08 12:43:28;;;;;;;8.18;3.97;;;5.60;99.90;;;;;;6245840;22;20008;-78
2023/03/08 12:46:02;;;;;;;6.68;4.40;;;5.70;99.90;;;;;;6246209;22;20008;-78
2023/03/08 12:48:27;;;;;;;;;;;5.70;99.90;;;;;;6246493;22;20008;-78
2023/03/08 12:50:56;;;;;;;7.25;4.63;;;5.80;99.90;;;;;;6220434;22;19956;-78
2023/03/08 12:53:43;;;;;;;9.40;4.88;;;5.80;99.90;;;;;;6245943;22;20020;-78